Time;durP1;ratioP1;P1;durP2;ratioP2;P2;SDS_P1;SDS_P2;PMS_P1;PMS_P2;Temp;Humidity;BMP_temperature;BMP_pressure;BME280_temperature;BME280_humidity;BME280_pressure;Samples;Min_cycle;Max_cycle;Signal;HPM_P1;HPM_P2
2023/07/02 00:01:34;;;;;;;10.88;3.40;;;16.00;99.90;;;;;;5071971;28;20028;-56
2023/07/02 00:04:00;;;;;;;12.02;3.70;;;16.00;99.90;;;;;;5072859;28;20024;-56
2023/07/02 00:06:26;;;;;;;9.15;3.83;;;15.90;99.90;;;;;;5071288;28;20013;-57
2023/07/02 00:08:51;;;;;;;13.20;3.25;;;15.80;99.90;;;;;;5072922;28;20025;-57
2023/07/02 00:11:17;;;;;;;10.73;4.93;;;15.80;99.90;;;;;;5072773;28;20037;-57
2023/07/02 00:13:42;;;;;;;12.30;4.13;;;15.80;99.90;;;;;;5072624;28;20039;-56
2023/07/02 00:16:08;;;;;;;8.40;3.40;;;15.90;99.90;;;;;;5071712;28;20500;-57
2023/07/02 00:18:34;;;;;;;10.23;3.60;;;15.80;99.90;;;;;;5071613;28;20374;-59
2023/07/02 00:21:03;;;;;;;13.40;3.72;;;15.90;99.90;;;;;;5069388;28;20075;-57
2023/07/02 00:23:29;;;;;;;12.13;4.30;;;15.90;99.90;;;;;;5072196;28;20385;-56
2023/07/02 00:25:56;;;;;;;13.65;4.20;;;15.90;99.90;;;;;;5066726;28;20052;-57
2023/07/02 00:28:22;;;;;;;14.77;4.73;;;15.90;99.90;;;;;;5068228;28;20544;-57
2023/07/02 00:30:47;;;;;;;13.02;3.50;;;15.90;99.90;;;;;;5062180;28;20139;-57
2023/07/02 00:33:13;;;;;;;8.60;2.83;;;15.90;99.90;;;;;;5070449;28;20036;-55
2023/07/02 00:35:39;;;;;;;12.88;3.50;;;15.90;99.90;;;;;;5068981;28;20020;-63
2023/07/02 00:38:04;;;;;;;12.40;3.35;;;15.90;99.90;;;;;;5070495;28;20104;-58
2023/07/02 00:40:30;;;;;;;9.25;3.25;;;15.80;99.90;;;;;;5068265;28;20021;-62
2023/07/02 00:42:56;;;;;;;8.32;3.90;;;15.90;99.90;;;;;;5064197;28;20063;-58
2023/07/02 00:45:22;;;;;;;8.80;3.00;;;15.90;99.90;;;;;;5075348;28;20028;-58
2023/07/02 00:47:48;;;;;;;10.55;3.63;;;15.90;99.90;;;;;;5076306;28;20350;-57
2023/07/02 00:50:14;;;;;;;15.43;3.92;;;15.90;99.90;;;;;;5076342;28;20505;-58
2023/07/02 00:52:40;;;;;;;12.65;3.40;;;15.80;99.90;;;;;;5075556;28;20040;-57
2023/07/02 00:55:06;;;;;;;8.52;3.92;;;15.80;99.90;;;;;;5061382;28;20170;-57
2023/07/02 00:57:32;;;;;;;7.22;3.70;;;15.70;99.90;;;;;;5076622;28;20028;-57
2023/07/02 01:00:00;;;;;;;17.10;4.10;;;15.70;99.90;;;;;;5076344;28;20108;-58
2023/07/02 01:02:29;;;;;;;12.15;4.55;;;15.60;99.90;;;;;;5076135;28;20059;-58
2023/07/02 01:04:59;;;;;;;19.13;4.18;;;15.60;99.90;;;;;;5073319;28;20037;-57
2023/07/02 01:07:25;;;;;;;10.68;4.07;;;15.60;99.90;;;;;;5074269;28;20117;-57
2023/07/02 01:09:51;;;;;;;11.55;4.38;;;15.60;99.90;;;;;;5068310;28;20056;-57
2023/07/02 01:12:18;;;;;;;12.88;3.35;;;15.50;99.90;;;;;;5069407;28;20029;-57
2023/07/02 01:14:53;;;;;;;10.82;4.15;;;15.50;99.90;;;;;;5075695;28;20031;-57
2023/07/02 01:17:20;;;;;;;12.90;3.70;;;15.50;99.90;;;;;;5076085;28;20465;-58
2023/07/02 01:19:51;;;;;;;19.10;4.13;;;15.40;99.90;;;;;;5075798;28;20060;-57
2023/07/02 01:22:18;;;;;;;25.48;4.75;;;15.30;99.90;;;;;;5072780;28;20404;-60
2023/07/02 01:24:46;;;;;;;13.57;3.33;;;15.30;99.90;;;;;;5075458;28;20027;-59
2023/07/02 01:27:11;;;;;;;10.20;3.92;;;15.30;99.90;;;;;;5063938;28;20484;-58
2023/07/02 01:29:37;;;;;;;12.18;4.00;;;15.30;99.90;;;;;;5054354;28;20029;-57
2023/07/02 01:32:03;;;;;;;13.48;4.22;;;15.30;99.90;;;;;;5070338;28;20062;-58
2023/07/02 01:34:29;;;;;;;12.02;4.03;;;15.30;99.90;;;;;;5072126;28;20040;-58
2023/07/02 01:36:55;;;;;;;15.95;4.15;;;15.30;99.90;;;;;;5075430;28;20024;-58
2023/07/02 01:39:20;;;;;;;16.45;4.32;;;15.20;99.90;;;;;;5075394;28;20028;-58
2023/07/02 01:41:54;;;;;;;16.02;4.43;;;15.20;99.90;;;;;;5071750;28;20028;-58
2023/07/02 01:44:21;;;;;;;13.77;4.22;;;15.20;99.90;;;;;;5073818;28;20081;-58
2023/07/02 01:46:48;;;;;;;10.57;4.10;;;15.20;99.90;;;;;;5072975;28;20033;-58
2023/07/02 01:49:15;;;;;;;13.95;4.68;;;15.20;99.90;;;;;;5075225;28;20040;-58
2023/07/02 01:51:51;;;;;;;8.27;3.53;;;15.20;99.90;;;;;;5074435;28;20515;-58
2023/07/02 01:54:20;;;;;;;11.93;3.38;;;15.20;99.90;;;;;;5069681;28;20499;-59
2023/07/02 01:56:46;;;;;;;14.05;3.95;;;15.20;99.90;;;;;;5074900;28;20498;-59
2023/07/02 01:59:12;;;;;;;16.02;4.35;;;15.20;99.90;;;;;;5073900;28;20103;-58
2023/07/02 02:01:41;;;;;;;14.10;3.67;;;15.20;99.90;;;;;;5072075;28;20116;-58
2023/07/02 02:04:08;;;;;;;14.82;4.30;;;15.20;99.90;;;;;;5074063;28;20031;-58
2023/07/02 02:06:34;;;;;;;17.38;4.07;;;15.20;99.90;;;;;;5073828;28;20024;-58
2023/07/02 02:09:00;;;;;;;13.75;4.18;;;15.10;99.90;;;;;;5072081;28;20496;-58
2023/07/02 02:11:25;;;;;;;15.73;4.30;;;15.20;99.90;;;;;;5073917;28;20086;-58
2023/07/02 02:13:51;;;;;;;14.50;4.55;;;15.20;99.90;;;;;;5071930;28;20489;-57
2023/07/02 02:16:17;;;;;;;13.23;4.55;;;15.20;99.90;;;;;;5073547;28;20503;-58
2023/07/02 02:18:43;;;;;;;9.30;3.67;;;15.20;99.90;;;;;;5074719;28;20028;-58
2023/07/02 02:21:08;;;;;;;10.48;4.82;;;15.30;99.90;;;;;;5074539;28;20032;-57
2023/07/02 02:23:34;;;;;;;15.43;4.03;;;15.30;99.90;;;;;;5070197;28;20119;-58
2023/07/02 02:26:00;;;;;;;15.02;4.03;;;15.30;99.90;;;;;;5072128;28;20028;-59
2023/07/02 02:28:26;;;;;;;15.68;4.57;;;15.30;99.90;;;;;;5071807;28;20477;-58
2023/07/02 02:30:51;;;;;;;11.90;4.10;;;15.20;99.90;;;;;;5070400;28;20025;-59
2023/07/02 02:33:17;;;;;;;10.25;4.32;;;15.20;99.90;;;;;;5063640;28;20021;-58
2023/07/02 02:35:43;;;;;;;14.57;3.53;;;15.20;99.90;;;;;;5072166;28;20023;-60
2023/07/02 02:38:08;;;;;;;20.33;3.70;;;15.20;99.90;;;;;;5070037;28;20027;-59
2023/07/02 02:40:34;;;;;;;12.45;3.95;;;15.20;99.90;;;;;;5071968;28;20024;-59
2023/07/02 02:43:00;;;;;;;12.60;4.15;;;15.20;99.90;;;;;;5073528;28;20024;-59
2023/07/02 02:45:26;;;;;;;14.38;3.80;;;15.20;99.90;;;;;;5074265;28;20425;-59
2023/07/02 02:47:51;;;;;;;10.98;4.55;;;15.20;99.90;;;;;;5074191;28;20020;-60
2023/07/02 02:50:17;;;;;;;15.18;4.32;;;15.10;99.90;;;;;;5074088;28;20027;-59
2023/07/02 02:52:43;;;;;;;21.27;4.95;;;15.20;99.90;;;;;;5072294;28;20499;-60
2023/07/02 02:55:10;;;;;;;11.75;3.92;;;15.20;99.90;;;;;;5073733;28;20021;-60
2023/07/02 02:57:36;;;;;;;8.45;3.78;;;15.10;99.90;;;;;;5072746;28;20111;-58
2023/07/02 03:00:02;;;;;;;17.58;4.20;;;15.10;99.90;;;;;;5073896;28;20434;-59
2023/07/02 03:02:28;;;;;;;13.40;4.60;;;15.10;99.90;;;;;;5071389;28;20021;-58
2023/07/02 03:04:56;;;;;;;13.98;4.35;;;15.10;99.90;;;;;;5073436;28;20054;-60
2023/07/02 03:07:22;;;;;;;14.77;4.75;;;15.10;99.90;;;;;;5073556;28;20013;-60
2023/07/02 03:09:47;;;;;;;16.80;4.50;;;15.10;99.90;;;;;;5072360;28;20031;-59
2023/07/02 03:12:13;;;;;;;10.65;4.25;;;15.10;99.90;;;;;;5071441;28;20085;-57
2023/07/02 03:14:39;;;;;;;16.30;4.22;;;15.10;99.90;;;;;;5071994;28;20033;-60
2023/07/02 03:17:04;;;;;;;13.65;4.53;;;15.10;99.90;;;;;;5071329;28;20043;-60
2023/07/02 03:19:30;;;;;;;13.27;4.13;;;15.10;99.90;;;;;;5072628;28;20041;-60
2023/07/02 03:21:55;;;;;;;15.55;4.75;;;15.00;99.90;;;;;;5070893;28;20041;-61
2023/07/02 03:24:21;;;;;;;8.63;3.72;;;15.00;99.90;;;;;;5070282;28;20102;-61
2023/07/02 03:26:47;;;;;;;13.40;4.90;;;15.00;99.90;;;;;;5072622;28;20542;-60
2023/07/02 03:29:12;;;;;;;15.55;4.00;;;15.00;99.90;;;;;;5073171;28;20035;-59
2023/07/02 03:31:38;;;;;;;10.93;3.90;;;15.00;99.90;;;;;;5070185;28;20493;-59
2023/07/02 03:34:09;;;;;;;16.55;4.40;;;15.00;99.90;;;;;;5072110;28;20028;-59
2023/07/02 03:36:38;;;;;;;13.73;4.57;;;15.00;99.90;;;;;;5073246;28;20063;-61
2023/07/02 03:39:04;;;;;;;17.45;4.50;;;15.00;99.90;;;;;;5066481;28;20082;-67
2023/07/02 03:41:30;;;;;;;15.55;4.63;;;15.00;99.90;;;;;;5070266;28;20425;-61
2023/07/02 03:43:56;;;;;;;15.18;3.95;;;15.00;99.90;;;;;;5072155;28;20070;-60
2023/07/02 03:46:21;;;;;;;15.80;5.20;;;15.00;99.90;;;;;;5071896;28;20028;-60
2023/07/02 03:48:47;;;;;;;14.60;4.65;;;14.90;99.90;;;;;;5071452;28;20020;-59
2023/07/02 03:51:14;;;;;;;15.50;5.10;;;15.00;99.90;;;;;;5070102;28;20085;-60
2023/07/02 03:53:43;;;;;;;13.52;4.18;;;14.90;99.90;;;;;;5071069;28;20394;-62
2023/07/02 03:56:08;;;;;;;11.25;4.68;;;15.00;99.90;;;;;;5070199;28;20095;-62
2023/07/02 03:58:34;;;;;;;12.30;5.18;;;14.90;99.90;;;;;;5068659;28;20021;-62
2023/07/02 04:01:01;;;;;;;11.13;4.03;;;14.90;99.90;;;;;;5070806;28;20020;-62
2023/07/02 04:03:26;;;;;;;14.35;5.03;;;15.00;99.90;;;;;;5071521;28;20037;-62
2023/07/02 04:05:52;;;;;;;17.58;4.47;;;15.00;99.90;;;;;;5071180;28;20492;-62
2023/07/02 04:08:20;;;;;;;14.73;4.22;;;14.90;99.90;;;;;;5068137;28;20527;-62
2023/07/02 04:10:46;;;;;;;9.35;3.70;;;15.00;99.90;;;;;;5068498;28;20016;-62
2023/07/02 04:13:12;;;;;;;14.07;4.10;;;15.00;99.90;;;;;;5071178;28;20035;-62
2023/07/02 04:15:38;;;;;;;15.35;5.35;;;15.00;99.90;;;;;;5053103;28;20025;-62
2023/07/02 04:18:03;;;;;;;18.42;4.40;;;15.00;99.90;;;;;;5069856;28;21486;-63
2023/07/02 04:20:29;;;;;;;15.30;4.97;;;15.00;99.90;;;;;;5069368;28;20768;-67
2023/07/02 04:22:55;;;;;;;19.63;5.07;;;15.00;99.90;;;;;;5067963;28;20040;-62
2023/07/02 04:25:21;;;;;;;15.77;5.07;;;15.00;99.90;;;;;;5068086;28;20093;-62
2023/07/02 04:27:47;;;;;;;12.23;3.97;;;15.00;99.90;;;;;;5070403;28;20074;-62
2023/07/02 04:30:14;;;;;;;13.15;4.22;;;15.00;99.90;;;;;;5070954;28;20048;-63
2023/07/02 04:32:40;;;;;;;11.80;4.20;;;15.00;99.90;;;;;;5072500;28;20032;-63
2023/07/02 04:35:09;;;;;;;16.95;4.80;;;15.10;99.90;;;;;;5069049;28;20389;-62
2023/07/02 04:37:35;;;;;;;15.73;4.40;;;15.10;99.90;;;;;;5072025;28;20025;-63
2023/07/02 04:40:09;;;;;;;15.35;4.30;;;15.10;99.90;;;;;;5070151;28;20040;-62
2023/07/02 04:42:37;;;;;;;13.95;4.63;;;15.10;99.90;;;;;;5071375;28;20067;-61
2023/07/02 04:45:06;;;;;;;18.20;5.70;;;15.10;99.90;;;;;;5071802;28;20052;-62
2023/07/02 04:47:32;;;;;;;15.23;4.72;;;15.10;99.90;;;;;;5072179;28;20036;-61
2023/07/02 04:49:58;;;;;;;15.77;4.90;;;15.10;99.90;;;;;;5071151;28;20536;-62
2023/07/02 04:52:24;;;;;;;13.95;4.78;;;15.20;99.90;;;;;;5071269;28;20412;-62
2023/07/02 04:54:49;;;;;;;15.38;4.55;;;15.20;99.90;;;;;;5070951;28;20047;-61
2023/07/02 04:57:15;;;;;;;22.67;4.75;;;15.20;99.90;;;;;;5066386;28;20043;-60
2023/07/02 04:59:44;;;;;;;14.48;4.78;;;15.30;99.90;;;;;;5067047;28;20038;-61
2023/07/02 05:02:10;;;;;;;13.30;4.32;;;15.40;99.90;;;;;;5071432;28;20025;-60
2023/07/02 05:04:39;;;;;;;15.43;4.95;;;15.40;99.90;;;;;;5072293;28;20025;-62
2023/07/02 05:07:05;;;;;;;19.00;4.60;;;15.40;99.90;;;;;;5072195;28;20100;-62
2023/07/02 05:09:31;;;;;;;19.67;5.13;;;15.40;99.90;;;;;;5071285;28;20477;-61
2023/07/02 05:11:57;;;;;;;10.55;3.88;;;15.40;99.90;;;;;;5071041;28;20067;-62
2023/07/02 05:14:23;;;;;;;11.30;3.90;;;15.40;99.90;;;;;;5070983;28;20024;-61
2023/07/02 05:16:49;;;;;;;19.55;4.40;;;15.40;99.90;;;;;;5072086;28;20028;-62
2023/07/02 05:19:15;;;;;;;13.50;3.90;;;15.40;99.90;;;;;;5071688;28;20020;-61
2023/07/02 05:21:41;;;;;;;15.70;4.45;;;15.40;99.90;;;;;;5071202;28;20037;-62
2023/07/02 05:24:08;;;;;;;14.10;4.18;;;15.50;99.90;;;;;;5068604;28;20041;-61
2023/07/02 05:26:34;;;;;;;21.63;4.43;;;15.60;99.90;;;;;;5072033;28;20028;-61
2023/07/02 05:29:00;;;;;;;15.32;4.68;;;15.60;99.90;;;;;;5067874;28;20820;-61
2023/07/02 05:31:25;;;;;;;16.55;3.95;;;15.70;99.90;;;;;;5075575;28;20032;-61
2023/07/02 05:33:51;;;;;;;16.77;3.97;;;15.70;99.90;;;;;;5073900;28;20035;-65
2023/07/02 05:36:17;;;;;;;17.48;4.53;;;15.90;99.90;;;;;;5075534;28;20480;-61
2023/07/02 05:38:42;;;;;;;10.75;3.55;;;15.90;99.90;;;;;;5073613;28;20035;-60
2023/07/02 05:41:08;;;;;;;14.65;4.20;;;15.90;99.90;;;;;;5074681;28;20086;-60
2023/07/02 05:43:33;;;;;;;13.80;3.40;;;16.00;99.90;;;;;;5071626;28;20099;-61
2023/07/02 05:46:02;;;;;;;14.73;4.10;;;16.00;99.90;;;;;;5073515;28;20107;-61
2023/07/02 05:48:28;;;;;;;21.33;3.63;;;16.20;99.90;;;;;;5072887;28;20386;-62
2023/07/02 05:50:55;;;;;;;12.45;4.03;;;16.20;99.90;;;;;;5075293;28;20050;-62
2023/07/02 05:53:20;;;;;;;12.68;3.47;;;16.30;99.90;;;;;;5073601;28;20453;-60
2023/07/02 05:55:48;;;;;;;12.20;4.40;;;16.30;99.90;;;;;;5073899;28;20031;-60
2023/07/02 05:58:13;;;;;;;13.10;3.95;;;16.40;99.90;;;;;;5073058;28;20511;-62
2023/07/02 06:00:41;;;;;;;15.35;4.30;;;16.50;99.90;;;;;;5075000;28;20028;-60
2023/07/02 06:03:07;;;;;;;;;;;16.60;99.90;;;;;;5074598;28;20032;-60
2023/07/02 06:05:32;;;;;;;16.02;3.85;;;16.70;99.90;;;;;;5075355;28;20257;-63
2023/07/02 06:07:58;;;;;;;13.57;3.55;;;16.80;99.90;;;;;;5072519;28;20033;-63
2023/07/02 06:10:24;;;;;;;13.07;4.38;;;16.90;99.90;;;;;;5074854;28;20412;-60
2023/07/02 06:12:49;;;;;;;8.65;3.47;;;17.00;99.90;;;;;;5072327;28;20021;-58
2023/07/02 06:15:15;;;;;;;6.25;3.25;;;17.10;99.90;;;;;;5074840;28;20100;-59
2023/07/02 06:17:41;;;;;;;12.23;3.50;;;17.20;99.90;;;;;;5072522;28;20048;-60
2023/07/02 06:20:07;;;;;;;9.98;3.28;;;17.30;99.90;;;;;;5074396;28;20086;-60
2023/07/02 06:22:33;;;;;;;13.55;4.13;;;17.30;99.90;;;;;;5072411;28;20045;-61
2023/07/02 06:24:58;;;;;;;9.20;3.65;;;17.00;99.90;;;;;;5073098;28;20073;-62
2023/07/02 06:27:24;;;;;;;12.13;3.08;;;17.00;99.90;;;;;;5073767;28;20056;-63
2023/07/02 06:29:51;;;;;;;11.57;3.20;;;17.50;99.90;;;;;;5072595;28;20052;-60
2023/07/02 06:32:17;;;;;;;9.03;3.50;;;18.60;99.90;;;;;;5072824;28;20028;-64
2023/07/02 06:34:42;;;;;;;14.10;3.55;;;19.20;99.90;;;;;;5073894;28;20279;-59
2023/07/02 06:37:08;;;;;;;14.52;3.47;;;19.10;99.90;;;;;;5072055;28;20108;-59
2023/07/02 06:39:34;;;;;;;17.35;3.53;;;18.50;99.90;;;;;;5074313;28;20104;-58
2023/07/02 06:41:59;;;;;;;10.32;3.20;;;18.10;99.90;;;;;;5072099;28;20477;-61
2023/07/02 06:44:25;;;;;;;13.13;3.78;;;18.00;99.90;;;;;;5074270;28;20385;-60
2023/07/02 06:46:51;;;;;;;14.10;3.90;;;17.60;99.90;;;;;;5072679;28;20045;-60
2023/07/02 06:49:16;;;;;;;18.92;4.30;;;17.40;99.90;;;;;;5074153;28;20036;-57
2023/07/02 06:51:42;;;;;;;10.48;3.63;;;17.60;99.90;;;;;;5071892;28;20025;-58
2023/07/02 06:54:08;;;;;;;9.27;3.22;;;17.50;99.90;;;;;;5071386;28;20032;-59
2023/07/02 06:56:34;;;;;;;9.57;3.20;;;17.50;99.90;;;;;;5068480;28;20384;-59
2023/07/02 06:59:00;;;;;;;12.40;3.17;;;17.70;99.90;;;;;;5068529;28;20023;-59
2023/07/02 07:01:25;;;;;;;15.27;4.22;;;17.70;99.90;;;;;;5067523;28;20400;-59
2023/07/02 07:03:51;;;;;;;14.38;3.53;;;17.60;99.90;;;;;;5068589;28;20031;-60
2023/07/02 07:06:17;;;;;;;10.30;3.22;;;18.00;99.90;;;;;;5072275;28;20020;-59
2023/07/02 07:08:43;;;;;;;9.13;2.90;;;18.40;99.90;;;;;;5071127;28;20028;-62
2023/07/02 07:11:08;;;;;;;10.35;3.35;;;18.60;99.90;;;;;;5072558;28;20463;-60
2023/07/02 07:13:34;;;;;;;7.32;3.15;;;19.20;99.90;;;;;;5072441;28;20021;-60
2023/07/02 07:16:00;;;;;;;10.73;2.67;;;20.10;99.90;;;;;;5073611;28;20565;-59
2023/07/02 07:18:25;;;;;;;10.85;2.65;;;20.90;99.90;;;;;;5072598;28;20375;-61
2023/07/02 07:20:52;;;;;;;8.80;2.67;;;21.40;99.90;;;;;;5070463;28;20020;-59
2023/07/02 07:23:18;;;;;;;9.10;3.25;;;21.90;99.90;;;;;;5071054;28;20134;-59
2023/07/02 07:25:44;;;;;;;8.23;2.72;;;21.40;99.90;;;;;;5073354;28;20028;-61
2023/07/02 07:28:16;;;;;;;13.32;3.03;;;20.20;99.90;;;;;;5073283;28;20070;-59
2023/07/02 07:30:43;;;;;;;7.70;3.00;;;20.00;99.90;;;;;;5072976;28;20101;-61
2023/07/02 07:33:08;;;;;;;4.35;2.58;;;19.80;99.90;;;;;;5072458;28;20499;-59
2023/07/02 07:35:34;;;;;;;9.88;2.88;;;20.10;99.90;;;;;;5073547;28;20025;-60
2023/07/02 07:38:00;;;;;;;9.98;2.28;;;20.20;99.90;;;;;;5068354;28;20032;-59
2023/07/02 07:40:25;;;;;;;8.98;2.78;;;20.00;99.90;;;;;;5071885;28;20027;-61
2023/07/02 07:42:51;;;;;;;14.20;3.60;;;20.00;99.90;;;;;;5072118;28;20027;-60
2023/07/02 07:45:16;;;;;;;12.52;3.75;;;20.30;99.90;;;;;;5072934;28;20017;-59
2023/07/02 07:47:43;;;;;;;11.45;2.85;;;20.50;99.90;;;;;;5073067;28;20078;-61
2023/07/02 07:50:12;;;;;;;11.10;3.50;;;20.10;99.90;;;;;;5073010;28;20021;-61
2023/07/02 07:52:41;;;;;;;16.35;3.80;;;20.40;99.90;;;;;;5070262;28;20028;-62
2023/07/02 07:55:08;;;;;;;11.88;2.95;;;20.40;99.90;;;;;;5071057;28;20026;-61
2023/07/02 07:57:35;;;;;;;11.80;3.22;;;19.90;99.90;;;;;;5071595;28;20404;-64
2023/07/02 08:00:04;;;;;;;13.95;3.40;;;19.80;99.90;;;;;;5072857;28;20048;-60
2023/07/02 08:02:29;;;;;;;10.20;3.53;;;19.40;99.90;;;;;;5070658;28;20435;-61
2023/07/02 08:04:55;;;;;;;11.73;3.50;;;18.90;99.90;;;;;;5061139;28;20021;-60
2023/07/02 08:07:20;;;;;;;8.35;3.05;;;18.20;99.90;;;;;;5071008;28;20381;-57
2023/07/02 08:09:46;;;;;;;11.20;3.17;;;17.80;99.90;;;;;;5062585;28;20016;-59
2023/07/02 08:12:12;;;;;;;11.20;3.05;;;18.00;99.90;;;;;;5065842;28;20017;-61
2023/07/02 08:14:37;;;;;;;13.38;3.20;;;18.30;99.90;;;;;;5056825;28;20021;-59
2023/07/02 08:17:03;;;;;;;7.03;2.42;;;18.60;99.90;;;;;;5070375;28;20507;-61
2023/07/02 08:19:29;;;;;;;18.63;3.65;;;18.90;99.90;;;;;;5072119;28;20031;-59
2023/07/02 08:21:55;;;;;;;9.73;2.47;;;19.20;99.90;;;;;;5072449;28;20021;-59
2023/07/02 08:24:20;;;;;;;6.10;2.75;;;19.50;99.90;;;;;;5071404;28;20060;-62
2023/07/02 08:26:47;;;;;;;7.88;2.70;;;20.00;99.90;;;;;;5072459;28;20029;-61
2023/07/02 08:29:13;;;;;;;8.13;2.72;;;20.10;99.90;;;;;;5071584;28;20039;-57
2023/07/02 08:31:40;;;;;;;10.18;2.92;;;20.00;99.90;;;;;;5071463;28;20028;-57
2023/07/02 08:34:06;;;;;;;9.73;3.42;;;19.80;99.90;;;;;;5072530;28;20029;-61
2023/07/02 08:36:31;;;;;;;8.60;3.03;;;20.00;99.90;;;;;;5072320;28;20024;-57
2023/07/02 08:38:57;;;;;;;8.52;2.95;;;20.30;99.90;;;;;;5072415;28;20081;-57
2023/07/02 08:41:23;;;;;;;8.27;3.40;;;20.40;99.90;;;;;;5072679;28;20032;-56
2023/07/02 08:43:49;;;;;;;5.50;2.65;;;20.20;99.90;;;;;;5072747;28;20027;-60
2023/07/02 08:46:16;;;;;;;9.05;2.92;;;20.30;99.90;;;;;;5071690;28;20369;-60
2023/07/02 08:48:42;;;;;;;8.43;2.80;;;20.20;99.90;;;;;;5071616;28;20042;-61
2023/07/02 08:51:08;;;;;;;9.55;2.67;;;20.00;99.90;;;;;;5072395;28;20505;-61
2023/07/02 08:53:34;;;;;;;5.40;2.40;;;19.60;99.90;;;;;;5072223;28;20029;-62
2023/07/02 08:56:01;;;;;;;8.80;2.30;;;19.80;99.90;;;;;;5072288;28;20507;-59
2023/07/02 08:58:27;;;;;;;5.53;2.30;;;20.20;99.90;;;;;;5066177;28;20492;-60
2023/07/02 09:01:14;;;;;;;4.57;2.25;;;19.90;99.90;;;;;;5069999;28;20433;-58
2023/07/02 09:03:40;;;;;;;7.40;2.83;;;20.00;99.90;;;;;;5070310;28;20078;-61
2023/07/02 09:06:07;;;;;;;8.32;2.30;;;20.20;99.90;;;;;;5068102;28;20048;-57
2023/07/02 09:08:33;;;;;;;4.97;2.40;;;20.30;99.90;;;;;;5070645;28;20025;-60
2023/07/02 09:11:12;;;;;;;8.55;1.75;;;20.30;99.90;;;;;;5074905;28;20020;-60
2023/07/02 09:13:50;;;;;;;5.35;1.92;;;19.70;99.90;;;;;;5073685;28;20028;-61
2023/07/02 09:16:27;;;;;;;4.65;2.03;;;19.50;99.90;;;;;;5073118;28;20051;-59
2023/07/02 09:19:00;;;;;;;8.85;2.22;;;19.70;99.90;;;;;;5066126;28;20430;-60
2023/07/02 09:21:47;;;;;;;6.07;2.10;;;20.10;99.90;;;;;;5075001;28;20086;-58
2023/07/02 09:24:22;;;;;;;6.05;1.90;;;20.60;99.90;;;;;;5054549;28;20052;-60
2023/07/02 09:26:50;;;;;;;6.13;2.33;;;20.70;99.90;;;;;;5067981;28;20425;-59
2023/07/02 09:29:21;;;;;;;;;;;20.80;99.50;;;;;;5058219;28;20104;-59
2023/07/02 09:31:48;;;;;;;5.72;1.90;;;20.40;99.60;;;;;;5055611;28;19915;-58
2023/07/02 09:34:14;;;;;;;8.05;1.83;;;20.00;99.80;;;;;;5055629;28;20038;-58
2023/07/02 09:36:41;;;;;;;5.05;1.60;;;19.70;99.90;;;;;;5064066;28;20020;-59
2023/07/02 09:39:36;;;;;;;4.80;2.15;;;19.60;99.90;;;;;;5072533;28;20063;-61
2023/07/02 09:42:05;;;;;;;9.70;2.13;;;19.50;99.90;;;;;;5073692;28;20489;-58
2023/07/02 09:44:33;;;;;;;10.35;2.72;;;19.10;99.90;;;;;;5075541;28;20400;-58
2023/07/02 09:47:07;;;;;;;3.72;1.85;;;19.10;99.90;;;;;;5075380;28;20056;-58
2023/07/02 09:49:43;;;;;;;8.23;2.47;;;19.20;99.90;;;;;;5075330;28;20025;-59
2023/07/02 09:52:10;;;;;;;4.80;1.80;;;19.30;99.90;;;;;;5075298;28;20070;-59
2023/07/02 09:54:37;;;;;;;4.20;2.10;;;19.40;99.90;;;;;;5074171;28;20077;-63
2023/07/02 09:57:04;;;;;;;5.70;2.03;;;19.60;99.90;;;;;;5064300;28;20035;-62
2023/07/02 09:59:29;;;;;;;4.00;1.80;;;19.50;99.90;;;;;;5069713;28;20361;-57
2023/07/02 10:01:56;;;;;;;2.58;1.55;;;19.20;99.30;;;;;;5074765;28;20029;-51
2023/07/02 10:04:25;;;;;;;6.13;1.75;;;18.90;99.90;;;;;;5074999;28;20024;-65
2023/07/02 10:06:57;;;;;;;5.57;1.42;;;18.70;99.90;;;;;;5075349;28;20432;-64
2023/07/02 10:09:43;;;;;;;3.10;1.48;;;18.90;99.90;;;;;;5074947;28;20033;-55
2023/07/02 10:12:45;;;;;;;6.87;1.40;;;19.10;99.20;;;;;;5055201;28;20371;-65
2023/07/02 10:15:11;;;;;;;1.95;1.00;;;19.50;98.80;;;;;;5072579;28;20031;-62
2023/07/02 10:17:37;;;;;;;1.98;1.27;;;19.70;98.50;;;;;;5074765;28;20029;-56
2023/07/02 10:20:07;;;;;;;2.83;1.40;;;19.80;97.80;;;;;;5073484;28;20546;-63
2023/07/02 10:22:47;;;;;;;5.13;1.63;;;20.00;97.90;;;;;;5074812;28;20392;-54
2023/07/02 10:25:27;;;;;;;6.13;2.10;;;19.90;97.40;;;;;;5074806;28;20098;-63
2023/07/02 10:27:53;;;;;;;5.57;1.58;;;19.90;98.50;;;;;;5073623;28;20052;-59
2023/07/02 10:30:29;;;;;;;6.20;2.08;;;19.70;98.80;;;;;;5073757;28;20017;-56
2023/07/02 10:32:55;;;;;;;4.13;1.70;;;19.60;99.90;;;;;;5074358;28;20024;-58
2023/07/02 10:35:20;;;;;;;4.63;2.63;;;19.60;99.90;;;;;;5074478;28;20036;-63
2023/07/02 10:37:46;;;;;;;7.35;1.88;;;19.60;99.90;;;;;;5074493;28;20516;-64
2023/07/02 10:40:12;;;;;;;4.97;2.28;;;19.60;99.10;;;;;;5074334;28;20108;-68
2023/07/02 10:43:04;;;;;;;5.38;2.22;;;19.80;99.90;;;;;;5074203;28;20104;-61
2023/07/02 10:45:34;;;;;;;6.78;2.50;;;20.40;99.90;;;;;;5071667;28;20382;-60
2023/07/02 10:48:08;;;;;;;4.45;1.50;;;20.80;99.20;;;;;;5073180;28;20397;-53
2023/07/02 10:50:34;;;;;;;6.60;2.40;;;20.50;98.10;;;;;;5074135;28;20021;-58
2023/07/02 10:52:59;;;;;;;5.68;1.85;;;20.10;98.30;;;;;;5074029;28;20035;-61
2023/07/02 10:55:27;;;;;;;3.85;2.00;;;19.80;98.40;;;;;;5065361;28;20029;-59
2023/07/02 10:58:06;;;;;;;8.10;2.67;;;19.60;97.90;;;;;;5068428;28;20386;-61
2023/07/02 11:00:32;;;;;;;5.03;1.83;;;19.60;98.40;;;;;;5055915;28;20085;-61
2023/07/02 11:02:58;;;;;;;8.57;2.30;;;19.40;98.80;;;;;;5069813;28;20047;-62
2023/07/02 11:05:24;;;;;;;7.50;2.30;;;19.50;99.00;;;;;;5068870;28;20476;-63
2023/07/02 11:07:56;;;;;;;3.67;1.85;;;19.60;98.70;;;;;;5063273;28;20419;-58
2023/07/02 11:10:23;;;;;;;6.18;2.72;;;19.60;98.20;;;;;;5073756;28;20020;-59
2023/07/02 11:12:49;;;;;;;1.98;1.23;;;19.40;98.20;;;;;;5072340;28;20119;-61
2023/07/02 11:15:17;;;;;;;7.60;1.70;;;19.30;99.40;;;;;;5073694;28;20459;-60
2023/07/02 11:17:43;;;;;;;4.53;1.80;;;19.60;97.70;;;;;;5056871;28;20624;-62
2023/07/02 11:20:10;;;;;;;6.63;2.38;;;20.00;98.30;;;;;;5073555;28;20104;-62
2023/07/02 11:22:37;;;;;;;6.10;2.47;;;20.20;98.50;;;;;;5072097;28;20131;-58
2023/07/02 11:25:14;;;;;;;2.63;1.50;;;20.40;98.10;;;;;;5070738;28;20177;-62
2023/07/02 11:27:40;;;;;;;7.88;3.33;;;20.70;97.90;;;;;;5067320;28;20064;-60
2023/07/02 11:30:06;;;;;;;7.25;2.13;;;21.00;98.10;;;;;;5071390;28;20476;-56
2023/07/02 11:32:46;;;;;;;5.18;2.05;;;20.60;96.40;;;;;;5071204;28;20061;-61
2023/07/02 11:35:12;;;;;;;5.00;1.70;;;20.20;97.60;;;;;;5070211;28;20025;-61
2023/07/02 11:37:38;;;;;;;9.57;2.10;;;20.10;97.80;;;;;;5067760;28;20024;-61
2023/07/02 11:40:04;;;;;;;6.88;2.30;;;20.20;97.10;;;;;;5071057;28;20032;-60
2023/07/02 11:42:30;;;;;;;13.00;2.55;;;20.20;97.90;;;;;;5061635;28;20457;-65
2023/07/02 11:44:55;;;;;;;4.65;2.20;;;20.30;97.90;;;;;;5061890;28;20028;-51
2023/07/02 11:47:21;;;;;;;4.97;1.90;;;20.30;97.80;;;;;;5066067;28;20524;-59
2023/07/02 11:49:47;;;;;;;6.68;2.50;;;20.40;97.10;;;;;;5072927;28;20381;-59
2023/07/02 11:52:14;;;;;;;8.75;2.72;;;20.30;97.20;;;;;;5071965;28;20089;-52
2023/07/02 11:54:40;;;;;;;;;;;20.10;97.80;;;;;;5073635;28;20406;-56
2023/07/02 11:57:06;;;;;;;6.47;2.35;;;19.90;97.30;;;;;;5072225;28;19911;-61
2023/07/02 11:59:32;;;;;;;10.90;2.83;;;19.50;97.80;;;;;;5088419;28;20024;-62
2023/07/02 12:01:57;;;;;;;5.93;2.28;;;19.60;97.60;;;;;;5071489;28;20426;-56
2023/07/02 12:04:23;;;;;;;4.95;2.50;;;19.90;98.00;;;;;;5072279;28;20071;-60
2023/07/02 12:06:49;;;;;;;3.10;2.00;;;20.10;97.50;;;;;;5072805;28;20362;-62
2023/07/02 12:09:14;;;;;;;4.32;2.08;;;20.20;98.10;;;;;;5071893;28;20032;-55
2023/07/02 12:11:40;;;;;;;8.18;2.70;;;20.20;97.80;;;;;;5072082;28;20032;-52
2023/07/02 12:14:05;;;;;;;5.28;2.30;;;20.50;97.50;;;;;;5071195;28;20157;-59
2023/07/02 12:16:31;;;;;;;7.95;2.38;;;21.00;97.20;;;;;;5072489;28;20021;-57
2023/07/02 12:18:57;;;;;;;4.22;2.58;;;21.10;96.40;;;;;;5071604;28;20032;-58
2023/07/02 12:21:22;;;;;;;2.88;2.28;;;21.00;96.80;;;;;;5071218;28;20021;-57
2023/07/02 12:23:48;;;;;;;8.23;2.35;;;20.90;96.40;;;;;;5069288;28;20036;-61
2023/07/02 12:26:14;;;;;;;4.18;2.38;;;20.80;96.90;;;;;;5071128;28;20085;-58
2023/07/02 12:28:39;;;;;;;6.85;2.63;;;20.80;97.00;;;;;;5072586;28;20361;-57
2023/07/02 12:31:05;;;;;;;9.30;2.95;;;20.90;96.40;;;;;;5069774;28;20038;-59
2023/07/02 12:33:30;;;;;;;8.38;2.60;;;21.00;96.00;;;;;;5072546;28;20036;-58
2023/07/02 12:35:56;;;;;;;10.13;2.53;;;21.00;96.00;;;;;;5071401;28;20481;-58
2023/07/02 12:38:22;;;;;;;4.97;2.53;;;20.90;95.70;;;;;;5074020;28;20031;-58
2023/07/02 12:40:48;;;;;;;6.15;2.83;;;20.60;95.70;;;;;;5074247;28;20093;-56
2023/07/02 12:43:14;;;;;;;9.73;2.88;;;20.50;96.80;;;;;;5074432;28;20027;-56